sensor_id;sensor_type;location;lat;lon;timestamp;temperature;humidity
6462;DHT22;3264;42.862;25.098;2023-05-29T00:00:37;15.10;99.90
6462;DHT22;3264;42.862;25.098;2023-05-29T00:03:09;15.00;99.90
6462;DHT22;3264;42.862;25.098;2023-05-29T00:05:37;15.10;99.90
6462;DHT22;3264;42.862;25.098;2023-05-29T00:08:07;15.10;99.90
6462;DHT22;3264;42.862;25.098;2023-05-29T00:10:38;15.10;99.90
6462;DHT22;3264;42.862;25.098;2023-05-29T00:13:07;15.00;99.90
6462;DHT22;3264;42.862;25.098;2023-05-29T00:15:35;15.00;99.90
6462;DHT22;3264;42.862;25.098;2023-05-29T00:18:05;15.00;99.90
6462;DHT22;3264;42.862;25.098;2023-05-29T00:20:39;15.00;99.90
6462;DHT22;3264;42.862;25.098;2023-05-29T00:23:08;15.10;99.90
6462;DHT22;3264;42.862;25.098;2023-05-29T00:25:37;15.10;99.90
6462;DHT22;3264;42.862;25.098;2023-05-29T00:28:09;15.10;99.90
6462;DHT22;3264;42.862;25.098;2023-05-29T00:30:42;15.10;99.90
6462;DHT22;3264;42.862;25.098;2023-05-29T00:33:14;15.10;99.90
6462;DHT22;3264;42.862;25.098;2023-05-29T00:35:42;15.00;99.90
6462;DHT22;3264;42.862;25.098;2023-05-29T00:38:25;15.00;99.90
6462;DHT22;3264;42.862;25.098;2023-05-29T00:40:57;15.00;99.90
6462;DHT22;3264;42.862;25.098;2023-05-29T00:43:31;15.00;99.90
6462;DHT22;3264;42.862;25.098;2023-05-29T00:46:13;15.00;99.90
6462;DHT22;3264;42.862;25.098;2023-05-29T00:48:44;15.10;99.90
6462;DHT22;3264;42.862;25.098;2023-05-29T00:51:15;15.10;99.90
6462;DHT22;3264;42.862;25.098;2023-05-29T00:53:44;15.10;99.90
6462;DHT22;3264;42.862;25.098;2023-05-29T00:56:13;15.10;99.90
6462;DHT22;3264;42.862;25.098;2023-05-29T00:58:46;15.10;99.90
6462;DHT22;3264;42.862;25.098;2023-05-29T01:01:15;15.00;99.90
6462;DHT22;3264;42.862;25.098;2023-05-29T01:03:43;15.00;99.90
6462;DHT22;3264;42.862;25.098;2023-05-29T01:06:15;15.00;99.90
6462;DHT22;3264;42.862;25.098;2023-05-29T01:08:43;15.00;99.90
6462;DHT22;3264;42.862;25.098;2023-05-29T01:11:16;15.00;99.90
6462;DHT22;3264;42.862;25.098;2023-05-29T01:13:49;14.90;99.90
6462;DHT22;3264;42.862;25.098;2023-05-29T01:16:24;15.00;99.90
6462;DHT22;3264;42.862;25.098;2023-05-29T01:19:00;15.00;99.90
6462;DHT22;3264;42.862;25.098;2023-05-29T01:21:49;15.00;99.90
6462;DHT22;3264;42.862;25.098;2023-05-29T01:24:28;15.00;99.90
6462;DHT22;3264;42.862;25.098;2023-05-29T01:27:04;15.10;99.90
6462;DHT22;3264;42.862;25.098;2023-05-29T01:29:34;15.00;99.90
6462;DHT22;3264;42.862;25.098;2023-05-29T01:32:03;15.10;99.90
6462;DHT22;3264;42.862;25.098;2023-05-29T01:34:33;15.10;99.90
6462;DHT22;3264;42.862;25.098;2023-05-29T01:37:01;15.10;99.90
6462;DHT22;3264;42.862;25.098;2023-05-29T01:39:31;15.00;99.90
6462;DHT22;3264;42.862;25.098;2023-05-29T01:42:00;15.00;99.90
6462;DHT22;3264;42.862;25.098;2023-05-29T01:44:45;15.00;99.90
6462;DHT22;3264;42.862;25.098;2023-05-29T01:47:14;15.00;99.90
6462;DHT22;3264;42.862;25.098;2023-05-29T01:49:42;15.00;99.90
6462;DHT22;3264;42.862;25.098;2023-05-29T01:52:11;15.00;99.90
6462;DHT22;3264;42.862;25.098;2023-05-29T01:54:42;15.00;99.90
6462;DHT22;3264;42.862;25.098;2023-05-29T01:57:09;15.00;99.90
6462;DHT22;3264;42.862;25.098;2023-05-29T01:59:38;14.90;99.90
6462;DHT22;3264;42.862;25.098;2023-05-29T02:02:23;14.90;99.90
6462;DHT22;3264;42.862;25.098;2023-05-29T02:04:52;14.90;99.90
6462;DHT22;3264;42.862;25.098;2023-05-29T02:07:27;15.00;99.90
6462;DHT22;3264;42.862;25.098;2023-05-29T02:09:55;14.90;99.90
6462;DHT22;3264;42.862;25.098;2023-05-29T02:12:24;14.90;99.90
6462;DHT22;3264;42.862;25.098;2023-05-29T02:14:52;15.00;99.90
6462;DHT22;3264;42.862;25.098;2023-05-29T02:17:20;14.90;99.90
6462;DHT22;3264;42.862;25.098;2023-05-29T02:19:49;15.00;99.90
6462;DHT22;3264;42.862;25.098;2023-05-29T02:22:18;15.10;99.90
6462;DHT22;3264;42.862;25.098;2023-05-29T02:24:46;15.00;99.90
6462;DHT22;3264;42.862;25.098;2023-05-29T02:27:14;15.00;99.90
6462;DHT22;3264;42.862;25.098;2023-05-29T02:29:43;15.00;99.90
6462;DHT22;3264;42.862;25.098;2023-05-29T02:32:11;15.10;99.90
6462;DHT22;3264;42.862;25.098;2023-05-29T02:34:38;15.10;99.90
6462;DHT22;3264;42.862;25.098;2023-05-29T02:37:08;15.10;99.90
6462;DHT22;3264;42.862;25.098;2023-05-29T02:39:36;15.10;99.90
6462;DHT22;3264;42.862;25.098;2023-05-29T02:42:25;15.00;99.90
6462;DHT22;3264;42.862;25.098;2023-05-29T02:44:54;15.00;99.90
6462;DHT22;3264;42.862;25.098;2023-05-29T02:47:21;15.00;99.90
6462;DHT22;3264;42.862;25.098;2023-05-29T02:49:50;14.90;99.90
6462;DHT22;3264;42.862;25.098;2023-05-29T02:52:19;15.00;99.90
6462;DHT22;3264;42.862;25.098;2023-05-29T02:54:47;15.10;99.90
6462;DHT22;3264;42.862;25.098;2023-05-29T02:57:16;15.00;99.90
6462;DHT22;3264;42.862;25.098;2023-05-29T02:59:44;15.00;99.90
6462;DHT22;3264;42.862;25.098;2023-05-29T03:02:16;14.90;99.90
6462;DHT22;3264;42.862;25.098;2023-05-29T03:04:44;15.00;99.90
6462;DHT22;3264;42.862;25.098;2023-05-29T03:07:13;15.00;99.90
6462;DHT22;3264;42.862;25.098;2023-05-29T03:09:42;15.00;99.90
6462;DHT22;3264;42.862;25.098;2023-05-29T03:12:10;15.10;99.90
6462;DHT22;3264;42.862;25.098;2023-05-29T03:14:38;15.10;99.90
6462;DHT22;3264;42.862;25.098;2023-05-29T03:17:07;15.00;99.90
6462;DHT22;3264;42.862;25.098;2023-05-29T03:19:36;15.00;99.90
6462;DHT22;3264;42.862;25.098;2023-05-29T03:22:04;15.00;99.90
6462;DHT22;3264;42.862;25.098;2023-05-29T03:24:33;15.00;99.90
6462;DHT22;3264;42.862;25.098;2023-05-29T03:27:04;15.00;99.90
6462;DHT22;3264;42.862;25.098;2023-05-29T03:29:33;15.10;99.90
6462;DHT22;3264;42.862;25.098;2023-05-29T03:32:02;15.00;99.90
6462;DHT22;3264;42.862;25.098;2023-05-29T03:34:30;15.10;99.90
6462;DHT22;3264;42.862;25.098;2023-05-29T03:36:58;15.10;99.90
6462;DHT22;3264;42.862;25.098;2023-05-29T03:39:27;15.20;99.90
6462;DHT22;3264;42.862;25.098;2023-05-29T03:41:55;15.20;99.90
6462;DHT22;3264;42.862;25.098;2023-05-29T03:44:25;15.10;99.90
6462;DHT22;3264;42.862;25.098;2023-05-29T03:46:53;15.10;99.90
6462;DHT22;3264;42.862;25.098;2023-05-29T03:49:22;15.10;99.90
6462;DHT22;3264;42.862;25.098;2023-05-29T03:51:50;15.20;99.90
6462;DHT22;3264;42.862;25.098;2023-05-29T03:54:18;15.20;99.90
6462;DHT22;3264;42.862;25.098;2023-05-29T03:56:47;15.20;99.90
6462;DHT22;3264;42.862;25.098;2023-05-29T03:59:16;15.20;99.90
6462;DHT22;3264;42.862;25.098;2023-05-29T04:01:46;15.20;99.90
6462;DHT22;3264;42.862;25.098;2023-05-29T04:04:14;15.20;99.90
6462;DHT22;3264;42.862;25.098;2023-05-29T04:06:41;15.20;99.90
6462;DHT22;3264;42.862;25.098;2023-05-29T04:09:09;15.20;99.90
6462;DHT22;3264;42.862;25.098;2023-05-29T04:11:37;15.30;99.90
6462;DHT22;3264;42.862;25.098;2023-05-29T04:14:06;15.40;99.90
6462;DHT22;3264;42.862;25.098;2023-05-29T04:16:34;15.30;99.90
6462;DHT22;3264;42.862;25.098;2023-05-29T04:19:04;15.30;99.90
6462;DHT22;3264;42.862;25.098;2023-05-29T04:21:33;15.40;99.90
6462;DHT22;3264;42.862;25.098;2023-05-29T04:24:01;15.30;99.90
6462;DHT22;3264;42.862;25.098;2023-05-29T04:26:28;15.40;99.90
6462;DHT22;3264;42.862;25.098;2023-05-29T04:28:58;15.40;99.90
6462;DHT22;3264;42.862;25.098;2023-05-29T04:31:27;15.40;99.90
6462;DHT22;3264;42.862;25.098;2023-05-29T04:33:55;15.30;99.90
6462;DHT22;3264;42.862;25.098;2023-05-29T04:36:25;15.40;99.90
6462;DHT22;3264;42.862;25.098;2023-05-29T04:38:54;15.40;99.90
6462;DHT22;3264;42.862;25.098;2023-05-29T04:41:24;15.50;99.90
6462;DHT22;3264;42.862;25.098;2023-05-29T04:43:55;15.50;99.90
6462;DHT22;3264;42.862;25.098;2023-05-29T04:46:24;15.50;99.90
6462;DHT22;3264;42.862;25.098;2023-05-29T04:48:52;15.60;99.90
6462;DHT22;3264;42.862;25.098;2023-05-29T04:51:36;15.50;99.90
6462;DHT22;3264;42.862;25.098;2023-05-29T04:54:07;15.60;99.90
6462;DHT22;3264;42.862;25.098;2023-05-29T04:56:36;15.70;99.90
6462;DHT22;3264;42.862;25.098;2023-05-29T04:59:06;15.60;99.90
6462;DHT22;3264;42.862;25.098;2023-05-29T05:01:35;15.60;99.90
6462;DHT22;3264;42.862;25.098;2023-05-29T05:04:02;15.70;99.90
6462;DHT22;3264;42.862;25.098;2023-05-29T05:06:30;15.80;99.90
6462;DHT22;3264;42.862;25.098;2023-05-29T05:09:01;15.60;99.90
6462;DHT22;3264;42.862;25.098;2023-05-29T05:11:40;15.60;99.90
6462;DHT22;3264;42.862;25.098;2023-05-29T05:14:07;15.70;99.90
6462;DHT22;3264;42.862;25.098;2023-05-29T05:16:36;15.80;99.90
6462;DHT22;3264;42.862;25.098;2023-05-29T05:19:06;15.90;99.90
6462;DHT22;3264;42.862;25.098;2023-05-29T05:21:33;15.90;99.90
6462;DHT22;3264;42.862;25.098;2023-05-29T05:24:04;16.00;99.90
6462;DHT22;3264;42.862;25.098;2023-05-29T05:26:32;16.00;99.90
6462;DHT22;3264;42.862;25.098;2023-05-29T05:29:01;16.10;99.90
6462;DHT22;3264;42.862;25.098;2023-05-29T05:31:28;16.20;99.90
6462;DHT22;3264;42.862;25.098;2023-05-29T05:33:57;16.20;99.90
6462;DHT22;3264;42.862;25.098;2023-05-29T05:36:26;16.20;99.90
6462;DHT22;3264;42.862;25.098;2023-05-29T05:38:54;16.00;99.90
6462;DHT22;3264;42.862;25.098;2023-05-29T05:41:24;16.00;99.90
6462;DHT22;3264;42.862;25.098;2023-05-29T05:43:54;16.10;99.90
6462;DHT22;3264;42.862;25.098;2023-05-29T05:46:22;16.10;99.90
6462;DHT22;3264;42.862;25.098;2023-05-29T05:48:50;16.10;99.90
6462;DHT22;3264;42.862;25.098;2023-05-29T05:51:18;16.10;99.90
6462;DHT22;3264;42.862;25.098;2023-05-29T05:53:47;16.30;99.90
6462;DHT22;3264;42.862;25.098;2023-05-29T05:56:14;16.40;99.90
6462;DHT22;3264;42.862;25.098;2023-05-29T05:58:45;16.40;99.90
6462;DHT22;3264;42.862;25.098;2023-05-29T06:01:12;16.40;99.90
6462;DHT22;3264;42.862;25.098;2023-05-29T06:03:40;16.30;99.90
6462;DHT22;3264;42.862;25.098;2023-05-29T06:06:08;16.30;99.90
6462;DHT22;3264;42.862;25.098;2023-05-29T06:08:36;16.30;99.90
6462;DHT22;3264;42.862;25.098;2023-05-29T06:11:04;16.30;99.90
6462;DHT22;3264;42.862;25.098;2023-05-29T06:13:33;16.40;99.90
6462;DHT22;3264;42.862;25.098;2023-05-29T06:16:03;16.30;99.90
6462;DHT22;3264;42.862;25.098;2023-05-29T06:18:32;16.20;99.90
6462;DHT22;3264;42.862;25.098;2023-05-29T06:20:59;16.20;99.90
6462;DHT22;3264;42.862;25.098;2023-05-29T06:23:28;16.30;99.90
6462;DHT22;3264;42.862;25.098;2023-05-29T06:25:56;16.40;99.90
6462;DHT22;3264;42.862;25.098;2023-05-29T06:28:24;16.50;99.90
6462;DHT22;3264;42.862;25.098;2023-05-29T06:30:52;16.40;99.90
6462;DHT22;3264;42.862;25.098;2023-05-29T06:33:21;16.40;99.90
6462;DHT22;3264;42.862;25.098;2023-05-29T06:35:50;16.40;99.90
6462;DHT22;3264;42.862;25.098;2023-05-29T06:38:18;16.30;99.90
6462;DHT22;3264;42.862;25.098;2023-05-29T06:40:46;16.40;99.90
6462;DHT22;3264;42.862;25.098;2023-05-29T06:43:14;16.50;99.90
6462;DHT22;3264;42.862;25.098;2023-05-29T06:45:42;16.60;99.90
6462;DHT22;3264;42.862;25.098;2023-05-29T06:48:15;16.70;99.90
6462;DHT22;3264;42.862;25.098;2023-05-29T06:50:45;16.80;99.90
6462;DHT22;3264;42.862;25.098;2023-05-29T06:53:13;16.80;99.90
6462;DHT22;3264;42.862;25.098;2023-05-29T06:55:41;16.90;99.90
6462;DHT22;3264;42.862;25.098;2023-05-29T06:58:10;16.90;99.90
6462;DHT22;3264;42.862;25.098;2023-05-29T07:00:39;16.80;99.90
6462;DHT22;3264;42.862;25.098;2023-05-29T07:03:07;16.80;99.90
6462;DHT22;3264;42.862;25.098;2023-05-29T07:05:35;16.70;99.90
6462;DHT22;3264;42.862;25.098;2023-05-29T07:08:04;16.70;99.90
6462;DHT22;3264;42.862;25.098;2023-05-29T07:10:34;16.70;99.90
6462;DHT22;3264;42.862;25.098;2023-05-29T07:13:03;16.80;99.90
6462;DHT22;3264;42.862;25.098;2023-05-29T07:15:34;16.70;99.90
6462;DHT22;3264;42.862;25.098;2023-05-29T07:18:02;16.60;99.90
6462;DHT22;3264;42.862;25.098;2023-05-29T07:20:30;16.40;99.90
6462;DHT22;3264;42.862;25.098;2023-05-29T07:22:58;16.50;99.90
6462;DHT22;3264;42.862;25.098;2023-05-29T07:25:28;16.50;99.90
6462;DHT22;3264;42.862;25.098;2023-05-29T07:27:58;16.50;99.90
6462;DHT22;3264;42.862;25.098;2023-05-29T07:30:26;16.50;99.90
6462;DHT22;3264;42.862;25.098;2023-05-29T07:32:55;16.60;99.90
6462;DHT22;3264;42.862;25.098;2023-05-29T07:35:24;16.60;99.90
6462;DHT22;3264;42.862;25.098;2023-05-29T07:37:53;16.50;99.90
6462;DHT22;3264;42.862;25.098;2023-05-29T07:40:22;16.50;99.90
6462;DHT22;3264;42.862;25.098;2023-05-29T07:42:51;16.50;99.90
6462;DHT22;3264;42.862;25.098;2023-05-29T07:45:23;16.40;99.90
6462;DHT22;3264;42.862;25.098;2023-05-29T07:47:51;16.30;99.90
6462;DHT22;3264;42.862;25.098;2023-05-29T07:50:20;16.20;99.90
6462;DHT22;3264;42.862;25.098;2023-05-29T07:52:48;16.20;99.90
6462;DHT22;3264;42.862;25.098;2023-05-29T07:55:16;16.20;99.90
6462;DHT22;3264;42.862;25.098;2023-05-29T07:57:45;16.10;99.90
6462;DHT22;3264;42.862;25.098;2023-05-29T08:00:16;16.20;99.90
6462;DHT22;3264;42.862;25.098;2023-05-29T08:02:44;16.30;99.90
6462;DHT22;3264;42.862;25.098;2023-05-29T08:05:12;16.30;99.90
6462;DHT22;3264;42.862;25.098;2023-05-29T08:07:41;16.30;99.90
6462;DHT22;3264;42.862;25.098;2023-05-29T08:10:10;16.50;99.90
6462;DHT22;3264;42.862;25.098;2023-05-29T08:12:37;16.70;99.90
6462;DHT22;3264;42.862;25.098;2023-05-29T08:15:06;16.80;99.90
6462;DHT22;3264;42.862;25.098;2023-05-29T08:17:35;16.90;99.90
6462;DHT22;3264;42.862;25.098;2023-05-29T08:20:05;16.80;99.90
6462;DHT22;3264;42.862;25.098;2023-05-29T08:22:36;16.90;99.90
6462;DHT22;3264;42.862;25.098;2023-05-29T08:25:05;16.90;99.90
6462;DHT22;3264;42.862;25.098;2023-05-29T08:27:34;17.00;99.90
6462;DHT22;3264;42.862;25.098;2023-05-29T08:30:02;16.90;99.90
6462;DHT22;3264;42.862;25.098;2023-05-29T08:32:35;17.00;99.90
6462;DHT22;3264;42.862;25.098;2023-05-29T08:35:03;17.20;99.90
6462;DHT22;3264;42.862;25.098;2023-05-29T08:37:33;17.20;99.90
6462;DHT22;3264;42.862;25.098;2023-05-29T08:40:03;17.10;99.90
6462;DHT22;3264;42.862;25.098;2023-05-29T08:42:39;17.10;99.90
6462;DHT22;3264;42.862;25.098;2023-05-29T08:45:10;17.50;99.90
6462;DHT22;3264;42.862;25.098;2023-05-29T08:47:43;17.50;99.90
6462;DHT22;3264;42.862;25.098;2023-05-29T08:50:12;17.30;99.90
6462;DHT22;3264;42.862;25.098;2023-05-29T08:52:42;17.40;99.90
6462;DHT22;3264;42.862;25.098;2023-05-29T08:55:10;17.50;99.90
6462;DHT22;3264;42.862;25.098;2023-05-29T08:57:39;17.70;99.90
6462;DHT22;3264;42.862;25.098;2023-05-29T09:00:10;17.80;99.90
6462;DHT22;3264;42.862;25.098;2023-05-29T09:02:39;17.60;99.90
6462;DHT22;3264;42.862;25.098;2023-05-29T09:05:09;17.80;99.90
6462;DHT22;3264;42.862;25.098;2023-05-29T09:07:38;17.80;99.90
6462;DHT22;3264;42.862;25.098;2023-05-29T09:10:07;17.70;99.90
6462;DHT22;3264;42.862;25.098;2023-05-29T09:12:36;17.60;99.90
6462;DHT22;3264;42.862;25.098;2023-05-29T09:15:17;17.30;99.90
6462;DHT22;3264;42.862;25.098;2023-05-29T09:17:50;17.20;99.90
6462;DHT22;3264;42.862;25.098;2023-05-29T09:20:22;17.40;99.90
6462;DHT22;3264;42.862;25.098;2023-05-29T09:22:53;17.40;99.90
6462;DHT22;3264;42.862;25.098;2023-05-29T09:25:23;17.50;99.90
6462;DHT22;3264;42.862;25.098;2023-05-29T09:27:55;17.60;99.90
6462;DHT22;3264;42.862;25.098;2023-05-29T09:30:37;17.60;99.90
6462;DHT22;3264;42.862;25.098;2023-05-29T09:33:07;17.60;99.90
6462;DHT22;3264;42.862;25.098;2023-05-29T09:35:38;17.40;99.90
6462;DHT22;3264;42.862;25.098;2023-05-29T09:38:09;17.70;99.90
6462;DHT22;3264;42.862;25.098;2023-05-29T09:40:39;17.80;99.90
6462;DHT22;3264;42.862;25.098;2023-05-29T09:43:11;17.70;99.90
6462;DHT22;3264;42.862;25.098;2023-05-29T09:45:40;17.70;99.90
6462;DHT22;3264;42.862;25.098;2023-05-29T09:48:15;18.00;99.90
6462;DHT22;3264;42.862;25.098;2023-05-29T09:50:47;18.20;99.90
6462;DHT22;3264;42.862;25.098;2023-05-29T09:53:20;18.30;99.90
6462;DHT22;3264;42.862;25.098;2023-05-29T09:55:51;18.20;99.90
6462;DHT22;3264;42.862;25.098;2023-05-29T09:58:21;18.20;99.90
6462;DHT22;3264;42.862;25.098;2023-05-29T10:00:51;18.20;99.90
6462;DHT22;3264;42.862;25.098;2023-05-29T10:03:20;18.00;99.90
6462;DHT22;3264;42.862;25.098;2023-05-29T10:05:50;17.60;99.90
6462;DHT22;3264;42.862;25.098;2023-05-29T10:08:20;17.50;99.90
6462;DHT22;3264;42.862;25.098;2023-05-29T10:10:53;17.40;99.90
6462;DHT22;3264;42.862;25.098;2023-05-29T10:13:22;17.30;99.90
6462;DHT22;3264;42.862;25.098;2023-05-29T10:15:54;17.40;99.90
6462;DHT22;3264;42.862;25.098;2023-05-29T10:18:26;17.50;99.90
6462;DHT22;3264;42.862;25.098;2023-05-29T10:20:57;17.60;99.90
6462;DHT22;3264;42.862;25.098;2023-05-29T10:23:26;18.10;99.90
6462;DHT22;3264;42.862;25.098;2023-05-29T10:26:01;18.40;99.90
6462;DHT22;3264;42.862;25.098;2023-05-29T10:28:32;18.70;99.90
6462;DHT22;3264;42.862;25.098;2023-05-29T10:31:14;18.70;99.90
6462;DHT22;3264;42.862;25.098;2023-05-29T10:33:57;18.80;99.90
6462;DHT22;3264;42.862;25.098;2023-05-29T10:36:32;18.90;99.90
6462;DHT22;3264;42.862;25.098;2023-05-29T10:39:04;18.90;99.90
6462;DHT22;3264;42.862;25.098;2023-05-29T10:41:34;18.50;99.90
6462;DHT22;3264;42.862;25.098;2023-05-29T10:44:37;18.50;99.90
6462;DHT22;3264;42.862;25.098;2023-05-29T10:47:06;18.90;99.90
6462;DHT22;3264;42.862;25.098;2023-05-29T10:49:34;19.10;99.90
6462;DHT22;3264;42.862;25.098;2023-05-29T10:52:06;19.40;99.90
6462;DHT22;3264;42.862;25.098;2023-05-29T10:54:50;19.70;99.90
6462;DHT22;3264;42.862;25.098;2023-05-29T10:57:21;19.70;99.90
6462;DHT22;3264;42.862;25.098;2023-05-29T11:00:02;20.20;99.90
6462;DHT22;3264;42.862;25.098;2023-05-29T11:02:37;20.10;99.90
6462;DHT22;3264;42.862;25.098;2023-05-29T11:05:21;20.30;99.90
6462;DHT22;3264;42.862;25.098;2023-05-29T11:07:57;20.40;99.90
6462;DHT22;3264;42.862;25.098;2023-05-29T11:10:43;19.90;99.90
6462;DHT22;3264;42.862;25.098;2023-05-29T11:13:25;20.20;99.90
6462;DHT22;3264;42.862;25.098;2023-05-29T11:16:12;20.00;99.90
6462;DHT22;3264;42.862;25.098;2023-05-29T11:18:42;20.10;99.90
6462;DHT22;3264;42.862;25.098;2023-05-29T11:21:29;20.60;99.90
6462;DHT22;3264;42.862;25.098;2023-05-29T11:24:00;20.40;99.90
6462;DHT22;3264;42.862;25.098;2023-05-29T11:26:39;19.50;99.90
6462;DHT22;3264;42.862;25.098;2023-05-29T11:29:07;20.00;99.90
6462;DHT22;3264;42.862;25.098;2023-05-29T11:31:39;19.80;99.90
6462;DHT22;3264;42.862;25.098;2023-05-29T11:34:13;18.90;99.90
6462;DHT22;3264;42.862;25.098;2023-05-29T11:36:42;18.60;99.90
6462;DHT22;3264;42.862;25.098;2023-05-29T11:39:12;18.40;99.90
6462;DHT22;3264;42.862;25.098;2023-05-29T11:41:41;18.70;99.90
6462;DHT22;3264;42.862;25.098;2023-05-29T11:44:08;18.70;99.90
6462;DHT22;3264;42.862;25.098;2023-05-29T11:46:40;18.50;99.90
6462;DHT22;3264;42.862;25.098;2023-05-29T11:49:08;19.10;99.90
6462;DHT22;3264;42.862;25.098;2023-05-29T11:51:37;19.10;99.90
6462;DHT22;3264;42.862;25.098;2023-05-29T11:54:06;19.20;99.90
6462;DHT22;3264;42.862;25.098;2023-05-29T11:56:37;19.10;99.90
6462;DHT22;3264;42.862;25.098;2023-05-29T11:59:11;19.20;99.90
6462;DHT22;3264;42.862;25.098;2023-05-29T12:01:39;19.10;99.90
6462;DHT22;3264;42.862;25.098;2023-05-29T12:04:15;19.10;99.90
6462;DHT22;3264;42.862;25.098;2023-05-29T12:06:43;19.30;99.90
6462;DHT22;3264;42.862;25.098;2023-05-29T12:09:24;19.60;99.90
6462;DHT22;3264;42.862;25.098;2023-05-29T12:12:00;19.60;99.90
6462;DHT22;3264;42.862;25.098;2023-05-29T12:14:42;19.60;99.90
6462;DHT22;3264;42.862;25.098;2023-05-29T12:17:11;19.30;99.90
6462;DHT22;3264;42.862;25.098;2023-05-29T12:19:39;19.10;99.90
6462;DHT22;3264;42.862;25.098;2023-05-29T12:22:07;18.90;99.90
6462;DHT22;3264;42.862;25.098;2023-05-29T12:24:36;18.90;99.90
6462;DHT22;3264;42.862;25.098;2023-05-29T12:27:07;18.80;99.90
6462;DHT22;3264;42.862;25.098;2023-05-29T12:29:36;18.70;99.90
6462;DHT22;3264;42.862;25.098;2023-05-29T12:32:08;18.70;99.90
6462;DHT22;3264;42.862;25.098;2023-05-29T12:34:36;18.70;99.90
6462;DHT22;3264;42.862;25.098;2023-05-29T12:37:07;18.70;99.90
6462;DHT22;3264;42.862;25.098;2023-05-29T12:39:36;18.70;99.90
6462;DHT22;3264;42.862;25.098;2023-05-29T12:42:07;18.60;99.90
6462;DHT22;3264;42.862;25.098;2023-05-29T12:44:38;18.50;99.90
6462;DHT22;3264;42.862;25.098;2023-05-29T12:47:06;18.50;99.90
6462;DHT22;3264;42.862;25.098;2023-05-29T12:49:36;18.50;99.90
6462;DHT22;3264;42.862;25.098;2023-05-29T12:52:06;18.50;99.90
6462;DHT22;3264;42.862;25.098;2023-05-29T12:54:36;18.50;99.90
6462;DHT22;3264;42.862;25.098;2023-05-29T12:57:07;18.50;99.90
6462;DHT22;3264;42.862;25.098;2023-05-29T12:59:36;18.60;99.90
6462;DHT22;3264;42.862;25.098;2023-05-29T13:02:04;18.50;99.90
6462;DHT22;3264;42.862;25.098;2023-05-29T13:04:34;18.50;99.90
6462;DHT22;3264;42.862;25.098;2023-05-29T13:07:05;18.30;99.90
6462;DHT22;3264;42.862;25.098;2023-05-29T13:09:35;18.20;99.90
6462;DHT22;3264;42.862;25.098;2023-05-29T13:12:05;18.30;99.90
6462;DHT22;3264;42.862;25.098;2023-05-29T13:14:34;18.50;99.90
6462;DHT22;3264;42.862;25.098;2023-05-29T13:17:13;18.70;99.90
6462;DHT22;3264;42.862;25.098;2023-05-29T13:19:41;19.10;99.90
6462;DHT22;3264;42.862;25.098;2023-05-29T13:22:09;19.30;99.90
6462;DHT22;3264;42.862;25.098;2023-05-29T13:24:37;19.10;99.90
6462;DHT22;3264;42.862;25.098;2023-05-29T13:27:06;18.90;99.90
6462;DHT22;3264;42.862;25.098;2023-05-29T13:29:36;18.70;99.90
6462;DHT22;3264;42.862;25.098;2023-05-29T13:32:05;18.50;99.90
6462;DHT22;3264;42.862;25.098;2023-05-29T13:34:33;18.40;99.90
6462;DHT22;3264;42.862;25.098;2023-05-29T13:37:02;18.20;99.90
6462;DHT22;3264;42.862;25.098;2023-05-29T13:39:45;18.10;99.90
6462;DHT22;3264;42.862;25.098;2023-05-29T13:42:13;18.10;99.90
6462;DHT22;3264;42.862;25.098;2023-05-29T13:44:44;17.90;99.90
6462;DHT22;3264;42.862;25.098;2023-05-29T13:47:11;18.00;99.90
6462;DHT22;3264;42.862;25.098;2023-05-29T13:49:40;18.00;99.90
6462;DHT22;3264;42.862;25.098;2023-05-29T13:52:10;17.90;99.90
6462;DHT22;3264;42.862;25.098;2023-05-29T13:54:38;17.90;99.90
6462;DHT22;3264;42.862;25.098;2023-05-29T13:57:07;17.90;99.90
6462;DHT22;3264;42.862;25.098;2023-05-29T13:59:35;17.80;99.90
6462;DHT22;3264;42.862;25.098;2023-05-29T14:02:10;17.80;99.90
6462;DHT22;3264;42.862;25.098;2023-05-29T14:04:39;18.00;99.90
6462;DHT22;3264;42.862;25.098;2023-05-29T14:07:09;18.00;99.90
6462;DHT22;3264;42.862;25.098;2023-05-29T14:09:37;17.80;99.90
6462;DHT22;3264;42.862;25.098;2023-05-29T14:12:06;17.90;99.90
6462;DHT22;3264;42.862;25.098;2023-05-29T14:14:34;18.00;99.90
6462;DHT22;3264;42.862;25.098;2023-05-29T14:17:04;18.10;99.90
6462;DHT22;3264;42.862;25.098;2023-05-29T14:19:35;17.90;99.90
6462;DHT22;3264;42.862;25.098;2023-05-29T14:22:03;18.00;99.90
6462;DHT22;3264;42.862;25.098;2023-05-29T14:24:31;18.20;99.90
6462;DHT22;3264;42.862;25.098;2023-05-29T14:27:00;18.10;99.90
6462;DHT22;3264;42.862;25.098;2023-05-29T14:29:28;17.90;99.90
6462;DHT22;3264;42.862;25.098;2023-05-29T14:31:57;18.10;99.90
6462;DHT22;3264;42.862;25.098;2023-05-29T14:34:25;18.20;99.90
6462;DHT22;3264;42.862;25.098;2023-05-29T14:36:54;18.20;99.90
6462;DHT22;3264;42.862;25.098;2023-05-29T14:39:22;18.30;99.90
6462;DHT22;3264;42.862;25.098;2023-05-29T14:41:49;18.40;99.90
6462;DHT22;3264;42.862;25.098;2023-05-29T14:44:17;18.50;99.90
6462;DHT22;3264;42.862;25.098;2023-05-29T14:46:46;18.70;99.90
6462;DHT22;3264;42.862;25.098;2023-05-29T14:49:14;18.70;99.90
6462;DHT22;3264;42.862;25.098;2023-05-29T14:51:42;18.80;99.90
6462;DHT22;3264;42.862;25.098;2023-05-29T14:54:12;18.80;99.90
6462;DHT22;3264;42.862;25.098;2023-05-29T14:56:40;18.80;99.90
6462;DHT22;3264;42.862;25.098;2023-05-29T14:59:10;18.80;99.90
6462;DHT22;3264;42.862;25.098;2023-05-29T15:01:37;18.80;99.90
6462;DHT22;3264;42.862;25.098;2023-05-29T15:04:05;18.90;99.90
6462;DHT22;3264;42.862;25.098;2023-05-29T15:06:33;19.10;99.90
6462;DHT22;3264;42.862;25.098;2023-05-29T15:09:00;19.10;99.90
6462;DHT22;3264;42.862;25.098;2023-05-29T15:11:31;18.90;99.90
6462;DHT22;3264;42.862;25.098;2023-05-29T15:13:59;18.70;99.90
6462;DHT22;3264;42.862;25.098;2023-05-29T15:16:28;18.70;99.90
6462;DHT22;3264;42.862;25.098;2023-05-29T15:19:00;18.80;99.90
6462;DHT22;3264;42.862;25.098;2023-05-29T15:21:29;18.90;99.90
6462;DHT22;3264;42.862;25.098;2023-05-29T15:23:58;19.10;99.90
6462;DHT22;3264;42.862;25.098;2023-05-29T15:26:26;19.30;99.90
6462;DHT22;3264;42.862;25.098;2023-05-29T15:28:56;19.30;99.90
6462;DHT22;3264;42.862;25.098;2023-05-29T15:31:25;19.00;99.90
6462;DHT22;3264;42.862;25.098;2023-05-29T15:33:54;18.80;99.90
6462;DHT22;3264;42.862;25.098;2023-05-29T15:36:21;18.80;99.90
6462;DHT22;3264;42.862;25.098;2023-05-29T15:38:50;18.80;99.90
6462;DHT22;3264;42.862;25.098;2023-05-29T15:41:19;18.70;99.90
6462;DHT22;3264;42.862;25.098;2023-05-29T15:43:47;18.50;99.90
6462;DHT22;3264;42.862;25.098;2023-05-29T15:46:17;18.30;99.90
6462;DHT22;3264;42.862;25.098;2023-05-29T15:48:45;18.10;99.90
6462;DHT22;3264;42.862;25.098;2023-05-29T15:51:14;18.10;99.90
6462;DHT22;3264;42.862;25.098;2023-05-29T15:53:42;18.10;99.90
6462;DHT22;3264;42.862;25.098;2023-05-29T15:56:10;18.10;99.90
6462;DHT22;3264;42.862;25.098;2023-05-29T15:58:40;18.00;99.90
6462;DHT22;3264;42.862;25.098;2023-05-29T16:01:08;17.90;99.90
6462;DHT22;3264;42.862;25.098;2023-05-29T16:03:39;18.00;99.90